Hurdland, MO (63547)

3:10 AM CDT on August 02, 2014 (GMT -0500)
La Plata (KMOLAPLA2) Elev 928 ft | 40.03 °N, 92.48 °W | Change Station

Current weather conditions updated 13 seconds ago

Fog
Fog
61.0 °F
Feels Like 61.0 °F
N
0.0
Wind Variable Wind from North
Gusts 0.0 mph

Today is forecast to be Cooler than yesterday.

Today
High -- | Low -- °F
--% Chance of Precip.
Yesterday
High -- | Low -- °F
Precip. -- in
6:08 AM 8:22 PM
Waxing Crescent, 33% visible
Pressure 30.12 in
Visibility 0.5 miles
Clouds Clear
Dew Point 61 °F
Humidity 100%
Rainfall 0.00 in
Snow Depth Not available.
UV 0 out of 12
Pollen 6.80 out of 12
Air Quality Not available.
Flu Activity Not available.
METAR KIRK 020755Z AUTO 00000KT 1/2SM FG CLR 14/13 A3012 RMK AO2 SLP199 T01390133

More Conditions Fewer Conditions

Pressure 30.12 in
Visibility 0.5 miles
Clouds Clear
Dew Point 61 °F
Humidity 100%
Rainfall 0.00 in
Snow Depth Not available.
UV 0 out of 12
Pollen 6.80 out of 12
Air Quality Not available.
Flu Activity Not available.
METAR KIRK 020755Z AUTO 00000KT 1/2SM FG CLR 14/13 A3012 RMK AO2 SLP199 T01390133

More Conditions Fewer Conditions

10-Day Weather Forecast

Almanac

Astronomy

Aug. 02, 2014 Rise Set
Actual Time 6:08 AM CDT 8:22 PM CDT
Civil Twilight 5:37 AM CDT 8:52 PM CDT
Nautical Twilight 5:00 AM CDT 9:29 PM CDT
Astronomical Twilight 4:19 AM CDT 10:10 PM CDT
Moon 12:30 PM CDT 11:40 PM CDT
Length of Visible Light 15h 14m
Length of Day
14h 13m
Tomorrow will be 2m 3s shorter.
Waxing Crescent, 33% of the Moon is Illuminated
Today
Waxing Crescent
Aug 3
First Quarter
Aug 10
Full
Aug 17
Last Quarter
Aug 25
New

Today's Extremes

State Highs State Lows

Community

WunderPhotos

Upload Photos

1,739,844 photos uploaded!

Nearby

Snow Depth

Station Depth Elevation
No new snow has been reported.

Earthquake Activity

City Distance Mag. Time & Date
No recent earthquake activity has been reported nearby.
Minimum magnitude displayed is 2.5.

Coastal Water Temperatures

Place Temperature
No Stations Reporting

Nearby Weather Stations

Station Location Temp. Dew Point Humidity Wind Precip. Elev Updated Type
La Plata, La Plata, MO 61.0 °F 61 °F 100% North  at  0.0 mph 0.00 in / hr 928 ft 3:10 AM CDT Rapid Fire

Show More Stations Show Fewer Stations